Huvudsida
METAR-TAF:

METAR-TAF

Flygplatser :

Salerno, Italien

latitud: 40-37N, longitud: 014-55E, höjd: 40 m

Aktuellt väderrapport

Denna rapport gjordes för 9 timmar och 20 minuter sedan, klockan 15:50 UTC
Vind 7 kt från nord
Temperatur 12°C
Fuktighet 54%
Tryck 1023 hPa
Sikt 10 km eller mer
Spridda moln på en höjd av 3500 ft

METAR: LIRI 191550Z 35007KT 9999 SCT035 12/03 Q1023

Tid: 02:10 (01:10 UTC)


TAF: saknas

Aktuella väderrapporter och prognoser från 4000 flygplatser (METAR- och TAF-rapporter).

De tillgängliga stationerna syns som gula och röda prickar på kartan.

För musen över prickarna för att se namnen på stationerna.

Klicka sedan för att få väderrapporter och prognoser.

För att ändra kartan: Klicka på de gröna knapparna med ett svart kors på för att zooma in; den gröna knappen med ett streck på för att zooma ut; eller på de gröna pilarna för angränsande kartor.


METAR-TAF: